sensor_id;sensor_type;location;lat;lon;timestamp;pressure;altitude;pressure_sealevel;temperature;humidity
74268;BME280;62638;51.362;12.472;2022-11-02T00:02:12;100659.00;;;9.32;95.57
74268;BME280;62638;51.362;12.472;2022-11-02T00:04:37;100657.53;;;9.39;95.66
74268;BME280;62638;51.362;12.472;2022-11-02T00:07:02;100665.41;;;9.41;95.29
74268;BME280;62638;51.362;12.472;2022-11-02T00:09:27;100661.50;;;9.45;95.20
74268;BME280;62638;51.362;12.472;2022-11-02T00:11:53;100656.78;;;9.37;95.35
74268;BME280;62638;51.362;12.472;2022-11-02T00:14:18;100655.63;;;9.30;95.59
74268;BME280;62638;51.362;12.472;2022-11-02T00:16:43;100652.47;;;9.25;96.21
74268;BME280;62638;51.362;12.472;2022-11-02T00:19:09;100654.56;;;9.10;96.66
74268;BME280;62638;51.362;12.472;2022-11-02T00:21:35;100647.53;;;9.09;96.99
74268;BME280;62638;51.362;12.472;2022-11-02T00:24:02;100654.97;;;9.06;97.16
74268;BME280;62638;51.362;12.472;2022-11-02T00:26:32;100656.16;;;9.02;97.42
74268;BME280;62638;51.362;12.472;2022-11-02T00:28:58;100654.44;;;9.12;97.28
74268;BME280;62638;51.362;12.472;2022-11-02T00:31:24;100657.63;;;9.06;96.61
74268;BME280;62638;51.362;12.472;2022-11-02T00:33:50;100659.97;;;8.88;97.44
74268;BME280;62638;51.362;12.472;2022-11-02T00:36:15;100655.59;;;8.87;98.18
74268;BME280;62638;51.362;12.472;2022-11-02T00:38:41;100662.63;;;8.88;98.34
74268;BME280;62638;51.362;12.472;2022-11-02T00:41:06;100662.38;;;8.80;98.39
74268;BME280;62638;51.362;12.472;2022-11-02T00:43:32;100666.41;;;8.75;98.69
74268;BME280;62638;51.362;12.472;2022-11-02T00:45:57;100673.53;;;8.63;98.71
74268;BME280;62638;51.362;12.472;2022-11-02T00:48:22;100664.94;;;8.48;99.05
74268;BME280;62638;51.362;12.472;2022-11-02T00:50:48;100672.31;;;8.34;99.49
74268;BME280;62638;51.362;12.472;2022-11-02T00:53:13;100666.00;;;8.35;100.00
74268;BME280;62638;51.362;12.472;2022-11-02T00:55:38;100661.31;;;8.49;100.00
74268;BME280;62638;51.362;12.472;2022-11-02T00:58:03;100660.06;;;8.42;100.00
74268;BME280;62638;51.362;12.472;2022-11-02T01:00:29;100657.53;;;8.41;100.00
74268;BME280;62638;51.362;12.472;2022-11-02T01:02:58;100662.25;;;8.37;100.00
74268;BME280;62638;51.362;12.472;2022-11-02T01:05:23;100650.84;;;8.35;100.00
74268;BME280;62638;51.362;12.472;2022-11-02T01:07:49;100654.19;;;8.26;100.00
74268;BME280;62638;51.362;12.472;2022-11-02T01:10:14;100654.91;;;8.17;100.00
74268;BME280;62638;51.362;12.472;2022-11-02T01:12:39;100657.34;;;8.20;100.00
74268;BME280;62638;51.362;12.472;2022-11-02T01:15:07;100657.56;;;8.06;100.00
74268;BME280;62638;51.362;12.472;2022-11-02T01:17:33;100660.59;;;8.12;100.00
74268;BME280;62638;51.362;12.472;2022-11-02T01:19:58;100652.09;;;7.96;100.00
74268;BME280;62638;51.362;12.472;2022-11-02T01:22:23;100648.66;;;7.83;100.00
74268;BME280;62638;51.362;12.472;2022-11-02T01:24:49;100651.44;;;7.82;100.00
74268;BME280;62638;51.362;12.472;2022-11-02T01:27:14;100652.88;;;7.74;100.00
74268;BME280;62638;51.362;12.472;2022-11-02T01:29:39;100650.81;;;7.78;100.00
74268;BME280;62638;51.362;12.472;2022-11-02T01:32:05;100644.19;;;7.84;100.00
74268;BME280;62638;51.362;12.472;2022-11-02T01:34:30;100650.09;;;7.76;100.00
74268;BME280;62638;51.362;12.472;2022-11-02T01:36:55;100651.06;;;7.75;100.00
74268;BME280;62638;51.362;12.472;2022-11-02T01:39:21;100640.06;;;7.56;100.00
74268;BME280;62638;51.362;12.472;2022-11-02T01:41:49;100649.75;;;7.46;100.00
74268;BME280;62638;51.362;12.472;2022-11-02T01:44:34;100645.44;;;7.32;100.00
74268;BME280;62638;51.362;12.472;2022-11-02T01:47:04;100651.75;;;7.42;100.00
74268;BME280;62638;51.362;12.472;2022-11-02T01:49:35;100655.28;;;7.43;100.00
74268;BME280;62638;51.362;12.472;2022-11-02T01:52:07;100651.94;;;7.52;100.00
74268;BME280;62638;51.362;12.472;2022-11-02T01:54:46;100650.53;;;7.35;100.00
74268;BME280;62638;51.362;12.472;2022-11-02T01:57:19;100646.56;;;7.41;100.00
74268;BME280;62638;51.362;12.472;2022-11-02T01:59:50;100637.97;;;7.48;100.00
74268;BME280;62638;51.362;12.472;2022-11-02T02:02:23;100643.22;;;7.50;100.00
74268;BME280;62638;51.362;12.472;2022-11-02T02:05:02;100630.84;;;7.84;100.00
74268;BME280;62638;51.362;12.472;2022-11-02T02:07:29;100633.66;;;7.93;100.00
74268;BME280;62638;51.362;12.472;2022-11-02T02:09:55;100640.28;;;7.77;100.00
74268;BME280;62638;51.362;12.472;2022-11-02T02:12:22;100634.81;;;7.78;100.00
74268;BME280;62638;51.362;12.472;2022-11-02T02:14:48;100618.81;;;7.78;100.00
74268;BME280;62638;51.362;12.472;2022-11-02T02:17:31;100622.50;;;7.88;100.00
74268;BME280;62638;51.362;12.472;2022-11-02T02:20:08;100622.59;;;7.87;100.00
74268;BME280;62638;51.362;12.472;2022-11-02T02:33:58;100621.63;;;7.77;100.00
74268;BME280;62638;51.362;12.472;2022-11-02T02:36:34;100626.38;;;7.95;100.00
74268;BME280;62638;51.362;12.472;2022-11-02T02:39:10;100620.28;;;7.82;100.00
74268;BME280;62638;51.362;12.472;2022-11-02T02:41:43;100622.94;;;7.82;100.00
74268;BME280;62638;51.362;12.472;2022-11-02T02:44:15;100619.88;;;8.21;100.00
74268;BME280;62638;51.362;12.472;2022-11-02T02:49:09;100626.72;;;8.48;100.00
74268;BME280;62638;51.362;12.472;2022-11-02T02:51:36;100623.19;;;8.47;99.56
74268;BME280;62638;51.362;12.472;2022-11-02T02:54:10;100621.59;;;8.56;98.79
74268;BME280;62638;51.362;12.472;2022-11-02T02:56:40;100613.63;;;8.67;97.62
74268;BME280;62638;51.362;12.472;2022-11-02T02:59:13;100618.94;;;8.78;96.63
74268;BME280;62638;51.362;12.472;2022-11-02T03:01:41;100625.34;;;8.87;95.82
74268;BME280;62638;51.362;12.472;2022-11-02T03:04:10;100627.66;;;8.91;94.87
74268;BME280;62638;51.362;12.472;2022-11-02T03:06:36;100632.25;;;8.89;94.65
74268;BME280;62638;51.362;12.472;2022-11-02T03:09:09;100623.28;;;8.90;94.36
74268;BME280;62638;51.362;12.472;2022-11-02T03:11:48;100634.81;;;8.91;93.87
74268;BME280;62638;51.362;12.472;2022-11-02T03:14:36;100634.56;;;8.94;93.29
74268;BME280;62638;51.362;12.472;2022-11-02T03:17:13;100631.06;;;8.82;93.79
74268;BME280;62638;51.362;12.472;2022-11-02T03:19:47;100629.59;;;8.78;94.33
74268;BME280;62638;51.362;12.472;2022-11-02T03:22:19;100628.63;;;8.68;94.51
74268;BME280;62638;51.362;12.472;2022-11-02T03:25:09;100627.19;;;8.64;94.48
74268;BME280;62638;51.362;12.472;2022-11-02T03:30:41;100623.81;;;8.62;94.70
74268;BME280;62638;51.362;12.472;2022-11-02T03:35:55;100622.47;;;8.56;94.83
74268;BME280;62638;51.362;12.472;2022-11-02T03:38:44;100618.81;;;8.46;95.01
74268;BME280;62638;51.362;12.472;2022-11-02T03:41:14;100611.16;;;8.42;95.29
74268;BME280;62638;51.362;12.472;2022-11-02T03:43:40;100612.28;;;8.39;95.58
74268;BME280;62638;51.362;12.472;2022-11-02T03:46:07;100603.50;;;8.26;96.38
74268;BME280;62638;51.362;12.472;2022-11-02T03:48:39;100603.38;;;8.28;96.21
74268;BME280;62638;51.362;12.472;2022-11-02T03:51:09;100595.16;;;8.19;96.58
74268;BME280;62638;51.362;12.472;2022-11-02T03:56:07;100607.09;;;8.03;97.46
74268;BME280;62638;51.362;12.472;2022-11-02T03:58:34;100611.97;;;7.98;97.92
74268;BME280;62638;51.362;12.472;2022-11-02T04:01:02;100610.97;;;7.99;98.27
74268;BME280;62638;51.362;12.472;2022-11-02T04:03:30;100599.34;;;8.00;97.64
74268;BME280;62638;51.362;12.472;2022-11-02T04:05:57;100602.88;;;8.11;97.49
74268;BME280;62638;51.362;12.472;2022-11-02T04:08:33;100607.59;;;8.08;97.64
74268;BME280;62638;51.362;12.472;2022-11-02T04:10:59;100604.69;;;8.00;98.07
74268;BME280;62638;51.362;12.472;2022-11-02T04:13:43;100611.97;;;8.09;97.84
74268;BME280;62638;51.362;12.472;2022-11-02T04:16:27;100608.59;;;8.18;98.11
74268;BME280;62638;51.362;12.472;2022-11-02T04:18:52;100611.00;;;8.21;97.18
74268;BME280;62638;51.362;12.472;2022-11-02T04:21:36;100603.63;;;8.13;97.61
74268;BME280;62638;51.362;12.472;2022-11-02T04:24:02;100601.78;;;8.03;97.56
74268;BME280;62638;51.362;12.472;2022-11-02T04:26:45;100602.50;;;8.05;97.68
74268;BME280;62638;51.362;12.472;2022-11-02T04:29:11;100602.41;;;8.06;97.79
74268;BME280;62638;51.362;12.472;2022-11-02T04:31:36;100606.53;;;8.10;97.56
74268;BME280;62638;51.362;12.472;2022-11-02T04:34:02;100611.97;;;8.09;97.63
74268;BME280;62638;51.362;12.472;2022-11-02T04:36:29;100603.97;;;8.20;96.84
74268;BME280;62638;51.362;12.472;2022-11-02T04:38:54;100609.06;;;8.12;96.76
74268;BME280;62638;51.362;12.472;2022-11-02T04:41:21;100602.91;;;8.23;96.37
74268;BME280;62638;51.362;12.472;2022-11-02T04:44:06;100612.38;;;8.27;96.06
74268;BME280;62638;51.362;12.472;2022-11-02T04:46:33;100604.16;;;8.41;95.60
74268;BME280;62638;51.362;12.472;2022-11-02T04:48:59;100600.88;;;8.48;94.88
74268;BME280;62638;51.362;12.472;2022-11-02T04:51:27;100607.91;;;8.60;94.69
74268;BME280;62638;51.362;12.472;2022-11-02T04:53:53;100601.84;;;8.58;94.27
74268;BME280;62638;51.362;12.472;2022-11-02T04:56:19;100609.59;;;8.61;93.91
74268;BME280;62638;51.362;12.472;2022-11-02T04:58:52;100608.72;;;8.72;93.93
74268;BME280;62638;51.362;12.472;2022-11-02T05:01:18;100608.88;;;8.71;93.68
74268;BME280;62638;51.362;12.472;2022-11-02T05:03:48;100607.88;;;8.83;93.25
74268;BME280;62638;51.362;12.472;2022-11-02T05:06:15;100594.38;;;8.95;92.43
74268;BME280;62638;51.362;12.472;2022-11-02T05:08:40;100604.69;;;9.00;92.05
74268;BME280;62638;51.362;12.472;2022-11-02T05:11:06;100600.03;;;9.02;91.95
74268;BME280;62638;51.362;12.472;2022-11-02T05:13:31;100594.63;;;8.92;92.08
74268;BME280;62638;51.362;12.472;2022-11-02T05:15:58;100590.13;;;8.93;92.37
74268;BME280;62638;51.362;12.472;2022-11-02T05:18:24;100598.00;;;9.05;91.61
74268;BME280;62638;51.362;12.472;2022-11-02T05:20:55;100589.84;;;9.07;91.67
74268;BME280;62638;51.362;12.472;2022-11-02T05:23:21;100599.44;;;8.98;91.92
74268;BME280;62638;51.362;12.472;2022-11-02T05:25:58;100594.59;;;9.03;92.01
74268;BME280;62638;51.362;12.472;2022-11-02T05:28:25;100598.00;;;8.94;92.34
74268;BME280;62638;51.362;12.472;2022-11-02T05:30:51;100605.81;;;8.86;92.86
74268;BME280;62638;51.362;12.472;2022-11-02T05:33:17;100590.63;;;8.87;92.93
74268;BME280;62638;51.362;12.472;2022-11-02T05:35:43;100599.13;;;8.92;92.20
74268;BME280;62638;51.362;12.472;2022-11-02T05:38:08;100603.44;;;9.04;92.17
74268;BME280;62638;51.362;12.472;2022-11-02T05:40:33;100597.63;;;9.10;91.85
74268;BME280;62638;51.362;12.472;2022-11-02T05:43:02;100590.47;;;8.99;91.80
74268;BME280;62638;51.362;12.472;2022-11-02T05:45:28;100596.19;;;9.06;91.55
74268;BME280;62638;51.362;12.472;2022-11-02T05:47:53;100593.88;;;9.01;92.11
74268;BME280;62638;51.362;12.472;2022-11-02T05:50:19;100592.50;;;9.18;91.32
74268;BME280;62638;51.362;12.472;2022-11-02T05:52:45;100603.88;;;9.20;90.92
74268;BME280;62638;51.362;12.472;2022-11-02T05:55:10;100598.75;;;9.28;90.53
74268;BME280;62638;51.362;12.472;2022-11-02T05:57:36;100614.19;;;9.36;90.14
74268;BME280;62638;51.362;12.472;2022-11-02T06:00:03;100618.88;;;9.43;89.85
74268;BME280;62638;51.362;12.472;2022-11-02T06:02:29;100622.63;;;9.41;89.91
74268;BME280;62638;51.362;12.472;2022-11-02T06:04:54;100617.13;;;9.53;89.56
74268;BME280;62638;51.362;12.472;2022-11-02T06:07:20;100615.56;;;9.51;89.36
74268;BME280;62638;51.362;12.472;2022-11-02T06:09:45;100617.25;;;9.52;89.48
74268;BME280;62638;51.362;12.472;2022-11-02T06:12:11;100625.56;;;9.70;88.45
74268;BME280;62638;51.362;12.472;2022-11-02T06:14:36;100619.69;;;9.76;88.38
74268;BME280;62638;51.362;12.472;2022-11-02T06:17:01;100624.59;;;9.71;88.47
74268;BME280;62638;51.362;12.472;2022-11-02T06:19:26;100637.22;;;9.69;88.99
74268;BME280;62638;51.362;12.472;2022-11-02T06:21:52;100632.09;;;9.77;88.16
74268;BME280;62638;51.362;12.472;2022-11-02T06:24:17;100633.41;;;9.82;88.15
74268;BME280;62638;51.362;12.472;2022-11-02T06:26:42;100638.69;;;9.93;87.22
74268;BME280;62638;51.362;12.472;2022-11-02T06:29:08;100656.63;;;10.02;86.65
74268;BME280;62638;51.362;12.472;2022-11-02T06:31:33;100661.19;;;10.12;85.87
74268;BME280;62638;51.362;12.472;2022-11-02T06:33:58;100664.28;;;10.07;86.17
74268;BME280;62638;51.362;12.472;2022-11-02T06:36:25;100671.78;;;10.13;85.73
74268;BME280;62638;51.362;12.472;2022-11-02T06:38:50;100685.13;;;10.24;84.97
74268;BME280;62638;51.362;12.472;2022-11-02T06:41:15;100676.78;;;10.18;85.20
74268;BME280;62638;51.362;12.472;2022-11-02T06:43:41;100682.63;;;10.12;85.61
74268;BME280;62638;51.362;12.472;2022-11-02T06:46:06;100686.63;;;10.17;85.17
74268;BME280;62638;51.362;12.472;2022-11-02T06:48:32;100689.44;;;10.16;85.64
74268;BME280;62638;51.362;12.472;2022-11-02T06:50:57;100685.88;;;10.36;84.67
74268;BME280;62638;51.362;12.472;2022-11-02T06:53:23;100686.22;;;10.42;84.26
74268;BME280;62638;51.362;12.472;2022-11-02T06:55:53;100692.88;;;10.48;83.77
74268;BME280;62638;51.362;12.472;2022-11-02T06:58:19;100689.59;;;10.44;84.21
74268;BME280;62638;51.362;12.472;2022-11-02T07:00:46;100689.88;;;10.41;84.25
74268;BME280;62638;51.362;12.472;2022-11-02T07:03:11;100696.88;;;10.33;84.17
74268;BME280;62638;51.362;12.472;2022-11-02T07:05:36;100699.94;;;10.28;84.58
74268;BME280;62638;51.362;12.472;2022-11-02T07:08:02;100708.09;;;10.27;85.09
74268;BME280;62638;51.362;12.472;2022-11-02T07:10:28;100712.34;;;10.29;85.11
74268;BME280;62638;51.362;12.472;2022-11-02T07:12:55;100727.44;;;10.51;84.32
74268;BME280;62638;51.362;12.472;2022-11-02T07:15:21;100729.31;;;10.60;83.68
74268;BME280;62638;51.362;12.472;2022-11-02T07:17:47;100723.00;;;10.71;83.38
74268;BME280;62638;51.362;12.472;2022-11-02T07:20:13;100720.38;;;10.80;82.90
74268;BME280;62638;51.362;12.472;2022-11-02T07:22:39;100726.19;;;10.85;82.61
74268;BME280;62638;51.362;12.472;2022-11-02T07:25:05;100730.19;;;11.01;82.70
74268;BME280;62638;51.362;12.472;2022-11-02T07:27:30;100727.00;;;11.07;81.72
74268;BME280;62638;51.362;12.472;2022-11-02T07:29:56;100728.59;;;11.19;81.14
74268;BME280;62638;51.362;12.472;2022-11-02T07:32:22;100728.22;;;11.33;80.84
74268;BME280;62638;51.362;12.472;2022-11-02T07:34:47;100729.34;;;11.40;80.20
74268;BME280;62638;51.362;12.472;2022-11-02T07:37:13;100740.50;;;11.45;80.37
74268;BME280;62638;51.362;12.472;2022-11-02T07:39:38;100733.22;;;11.66;79.68
74268;BME280;62638;51.362;12.472;2022-11-02T07:42:03;100735.41;;;11.82;78.55
74268;BME280;62638;51.362;12.472;2022-11-02T07:44:31;100736.44;;;11.51;79.17
74268;BME280;62638;51.362;12.472;2022-11-02T07:46:56;100741.22;;;11.37;80.33
74268;BME280;62638;51.362;12.472;2022-11-02T07:49:21;100747.97;;;11.32;81.15
74268;BME280;62638;51.362;12.472;2022-11-02T07:51:47;100751.94;;;11.37;81.01
74268;BME280;62638;51.362;12.472;2022-11-02T07:54:12;100740.84;;;11.52;80.11
74268;BME280;62638;51.362;12.472;2022-11-02T07:56:37;100745.34;;;11.61;79.46
74268;BME280;62638;51.362;12.472;2022-11-02T07:59:03;100742.88;;;11.88;79.09
74268;BME280;62638;51.362;12.472;2022-11-02T08:01:28;100750.25;;;11.86;78.72
74268;BME280;62638;51.362;12.472;2022-11-02T08:03:53;100750.34;;;11.75;78.83
74268;BME280;62638;51.362;12.472;2022-11-02T08:06:20;100759.84;;;11.98;77.68
74268;BME280;62638;51.362;12.472;2022-11-02T08:08:45;100756.75;;;12.03;77.65
74268;BME280;62638;51.362;12.472;2022-11-02T08:11:11;100761.25;;;12.02;78.39
74268;BME280;62638;51.362;12.472;2022-11-02T08:13:37;100758.44;;;12.33;77.09
74268;BME280;62638;51.362;12.472;2022-11-02T08:16:02;100757.53;;;12.51;76.49
74268;BME280;62638;51.362;12.472;2022-11-02T08:18:28;100746.28;;;12.28;77.60
74268;BME280;62638;51.362;12.472;2022-11-02T08:20:55;100756.28;;;12.46;76.57
74268;BME280;62638;51.362;12.472;2022-11-02T08:23:21;100769.28;;;12.50;76.47
74268;BME280;62638;51.362;12.472;2022-11-02T08:25:47;100753.34;;;12.30;78.08
74268;BME280;62638;51.362;12.472;2022-11-02T08:28:19;100753.19;;;12.50;77.34
74268;BME280;62638;51.362;12.472;2022-11-02T08:30:45;100750.44;;;12.69;76.33
74268;BME280;62638;51.362;12.472;2022-11-02T08:33:12;100753.50;;;12.94;75.71
74268;BME280;62638;51.362;12.472;2022-11-02T08:35:39;100743.84;;;13.01;75.17
74268;BME280;62638;51.362;12.472;2022-11-02T08:38:05;100747.75;;;13.16;75.14
74268;BME280;62638;51.362;12.472;2022-11-02T08:40:31;100741.25;;;13.18;74.85
74268;BME280;62638;51.362;12.472;2022-11-02T08:43:02;100752.34;;;13.33;75.06
74268;BME280;62638;51.362;12.472;2022-11-02T08:45:29;100750.28;;;13.72;73.64
74268;BME280;62638;51.362;12.472;2022-11-02T08:47:55;100755.00;;;13.88;73.17
74268;BME280;62638;51.362;12.472;2022-11-02T08:50:21;100759.84;;;13.84;72.64
74268;BME280;62638;51.362;12.472;2022-11-02T08:52:47;100751.78;;;14.02;72.28
74268;BME280;62638;51.362;12.472;2022-11-02T08:55:12;100759.38;;;14.06;71.45
74268;BME280;62638;51.362;12.472;2022-11-02T08:57:46;100755.00;;;14.23;71.40
74268;BME280;62638;51.362;12.472;2022-11-02T09:00:12;100753.91;;;14.16;71.71
74268;BME280;62638;51.362;12.472;2022-11-02T09:02:37;100757.38;;;14.08;71.08
74268;BME280;62638;51.362;12.472;2022-11-02T09:05:03;100750.94;;;14.19;70.95
74268;BME280;62638;51.362;12.472;2022-11-02T09:07:28;100742.00;;;14.36;70.27
74268;BME280;62638;51.362;12.472;2022-11-02T09:09:53;100742.72;;;14.64;69.12
74268;BME280;62638;51.362;12.472;2022-11-02T09:12:19;100748.44;;;14.26;70.04
74268;BME280;62638;51.362;12.472;2022-11-02T09:14:44;100741.91;;;14.46;69.54
74268;BME280;62638;51.362;12.472;2022-11-02T09:17:09;100747.50;;;14.35;69.02
74268;BME280;62638;51.362;12.472;2022-11-02T09:19:35;100750.38;;;14.51;68.48
74268;BME280;62638;51.362;12.472;2022-11-02T09:22:00;100757.22;;;14.45;68.94
74268;BME280;62638;51.362;12.472;2022-11-02T09:24:25;100761.19;;;14.59;69.02
74268;BME280;62638;51.362;12.472;2022-11-02T09:26:51;100751.78;;;14.63;67.83
74268;BME280;62638;51.362;12.472;2022-11-02T09:29:17;100755.78;;;14.77;67.21
74268;BME280;62638;51.362;12.472;2022-11-02T09:31:42;100762.59;;;14.89;66.97
74268;BME280;62638;51.362;12.472;2022-11-02T09:34:07;100766.03;;;14.99;67.52
74268;BME280;62638;51.362;12.472;2022-11-02T09:36:33;100766.72;;;14.75;66.68
74268;BME280;62638;51.362;12.472;2022-11-02T09:38:58;100764.59;;;14.87;67.41
74268;BME280;62638;51.362;12.472;2022-11-02T09:41:44;100767.97;;;14.89;67.16
74268;BME280;62638;51.362;12.472;2022-11-02T09:44:13;100774.13;;;14.99;66.42
74268;BME280;62638;51.362;12.472;2022-11-02T09:46:44;100772.84;;;15.11;65.81
74268;BME280;62638;51.362;12.472;2022-11-02T09:49:22;100763.34;;;14.73;67.33
74268;BME280;62638;51.362;12.472;2022-11-02T09:51:55;100762.88;;;15.12;65.60
74268;BME280;62638;51.362;12.472;2022-11-02T09:54:40;100764.97;;;15.18;65.45
74268;BME280;62638;51.362;12.472;2022-11-02T09:57:14;100764.28;;;14.90;65.80
74268;BME280;62638;51.362;12.472;2022-11-02T09:59:40;100752.31;;;15.18;63.62
74268;BME280;62638;51.362;12.472;2022-11-02T10:05:17;100764.41;;;15.48;64.38
74268;BME280;62638;51.362;12.472;2022-11-02T10:08:13;100743.88;;;15.21;63.77
74268;BME280;62638;51.362;12.472;2022-11-02T10:13:47;100755.00;;;15.52;62.63
74268;BME280;62638;51.362;12.472;2022-11-02T10:16:46;100741.97;;;15.48;62.17
74268;BME280;62638;51.362;12.472;2022-11-02T10:19:17;100769.78;;;15.74;60.87
74268;BME280;62638;51.362;12.472;2022-11-02T10:21:46;100764.41;;;15.90;60.09
74268;BME280;62638;51.362;12.472;2022-11-02T10:24:23;100786.00;;;15.90;58.88
74268;BME280;62638;51.362;12.472;2022-11-02T10:26:53;100776.22;;;15.97;58.40
74268;BME280;62638;51.362;12.472;2022-11-02T10:32:01;100770.88;;;16.29;56.06
74268;BME280;62638;51.362;12.472;2022-11-02T10:34:28;100781.69;;;16.21;55.79
74268;BME280;62638;51.362;12.472;2022-11-02T10:37:13;100785.38;;;16.20;55.52
74268;BME280;62638;51.362;12.472;2022-11-02T10:40:07;100780.53;;;16.72;55.39
74268;BME280;62638;51.362;12.472;2022-11-02T10:42:55;100781.03;;;16.52;54.31
74268;BME280;62638;51.362;12.472;2022-11-02T10:45:46;100787.75;;;16.23;56.03
74268;BME280;62638;51.362;12.472;2022-11-02T10:48:29;100788.59;;;16.24;55.20
74268;BME280;62638;51.362;12.472;2022-11-02T10:51:13;100797.56;;;16.16;55.86
74268;BME280;62638;51.362;12.472;2022-11-02T10:53:50;100798.25;;;16.51;54.57
74268;BME280;62638;51.362;12.472;2022-11-02T10:56:21;100790.50;;;16.56;53.45
74268;BME280;62638;51.362;12.472;2022-11-02T10:58:59;100804.16;;;16.54;54.33
74268;BME280;62638;51.362;12.472;2022-11-02T11:01:28;100805.22;;;16.69;53.52
74268;BME280;62638;51.362;12.472;2022-11-02T11:04:02;100800.44;;;17.12;52.85
74268;BME280;62638;51.362;12.472;2022-11-02T11:06:30;100806.19;;;17.01;53.52
74268;BME280;62638;51.362;12.472;2022-11-02T11:09:20;100802.31;;;16.79;52.10
74268;BME280;62638;51.362;12.472;2022-11-02T11:11:57;100807.06;;;15.70;53.98
74268;BME280;62638;51.362;12.472;2022-11-02T11:14:25;100806.31;;;16.18;54.05
74268;BME280;62638;51.362;12.472;2022-11-02T11:16:54;100804.59;;;15.93;55.22
74268;BME280;62638;51.362;12.472;2022-11-02T11:21:46;100809.25;;;16.65;53.54
74268;BME280;62638;51.362;12.472;2022-11-02T11:24:26;100804.63;;;17.14;51.91
74268;BME280;62638;51.362;12.472;2022-11-02T11:29:38;100803.34;;;16.78;52.10
74268;BME280;62638;51.362;12.472;2022-11-02T11:32:06;100810.94;;;16.74;51.81
74268;BME280;62638;51.362;12.472;2022-11-02T11:34:37;100819.41;;;16.71;52.38
74268;BME280;62638;51.362;12.472;2022-11-02T11:37:05;100812.47;;;16.77;51.51
74268;BME280;62638;51.362;12.472;2022-11-02T11:39:33;100811.22;;;16.31;52.16
74268;BME280;62638;51.362;12.472;2022-11-02T11:42:01;100822.09;;;16.88;50.97
74268;BME280;62638;51.362;12.472;2022-11-02T11:44:27;100816.72;;;16.63;50.56
74268;BME280;62638;51.362;12.472;2022-11-02T11:46:55;100819.06;;;16.99;50.66
74268;BME280;62638;51.362;12.472;2022-11-02T11:49:30;100798.09;;;16.85;49.57
74268;BME280;62638;51.362;12.472;2022-11-02T11:51:57;100806.28;;;17.32;49.22
74268;BME280;62638;51.362;12.472;2022-11-02T11:54:24;100802.63;;;17.16;48.53
74268;BME280;62638;51.362;12.472;2022-11-02T11:56:56;100799.41;;;16.40;50.43
74268;BME280;62638;51.362;12.472;2022-11-02T12:02:00;100795.97;;;15.89;51.80
74268;BME280;62638;51.362;12.472;2022-11-02T12:04:33;100819.91;;;15.42;53.43
74268;BME280;62638;51.362;12.472;2022-11-02T12:09:45;100808.50;;;16.07;51.99
74268;BME280;62638;51.362;12.472;2022-11-02T12:15:19;100808.72;;;16.38;51.39
74268;BME280;62638;51.362;12.472;2022-11-02T12:23:35;100792.84;;;16.26;50.54
74268;BME280;62638;51.362;12.472;2022-11-02T12:26:24;100791.09;;;16.09;51.23
74268;BME280;62638;51.362;12.472;2022-11-02T12:29:15;100800.16;;;15.42;52.19
74268;BME280;62638;51.362;12.472;2022-11-02T12:31:50;100795.75;;;15.75;52.38
74268;BME280;62638;51.362;12.472;2022-11-02T12:39:59;100792.84;;;16.34;50.57
74268;BME280;62638;51.362;12.472;2022-11-02T12:42:33;100806.38;;;16.51;51.24
74268;BME280;62638;51.362;12.472;2022-11-02T12:45:25;100798.75;;;16.22;50.40
74268;BME280;62638;51.362;12.472;2022-11-02T12:48:02;100803.34;;;15.71;51.18
74268;BME280;62638;51.362;12.472;2022-11-02T12:55:33;100805.22;;;15.11;53.50
74268;BME280;62638;51.362;12.472;2022-11-02T12:58:04;100806.88;;;15.04;53.54
74268;BME280;62638;51.362;12.472;2022-11-02T13:00:35;100807.31;;;14.74;54.31
74268;BME280;62638;51.362;12.472;2022-11-02T13:03:10;100806.34;;;14.57;55.69
74268;BME280;62638;51.362;12.472;2022-11-02T13:05:46;100814.09;;;14.78;55.15
74268;BME280;62638;51.362;12.472;2022-11-02T13:08:17;100805.41;;;15.43;53.52
74268;BME280;62638;51.362;12.472;2022-11-02T13:10:47;100800.66;;;15.79;52.67
74268;BME280;62638;51.362;12.472;2022-11-02T13:13:16;100804.22;;;15.80;51.78
74268;BME280;62638;51.362;12.472;2022-11-02T13:15:45;100803.53;;;15.78;51.77
74268;BME280;62638;51.362;12.472;2022-11-02T13:18:20;100796.47;;;15.85;50.52
74268;BME280;62638;51.362;12.472;2022-11-02T13:20:54;100800.16;;;15.76;50.41
74268;BME280;62638;51.362;12.472;2022-11-02T13:26:00;100807.59;;;15.74;50.53
74268;BME280;62638;51.362;12.472;2022-11-02T13:28:34;100809.59;;;15.72;49.94
74268;BME280;62638;51.362;12.472;2022-11-02T13:31:03;100819.84;;;15.60;49.31
74268;BME280;62638;51.362;12.472;2022-11-02T13:33:40;100800.94;;;15.60;50.17
74268;BME280;62638;51.362;12.472;2022-11-02T13:36:08;100804.84;;;15.66;49.65
74268;BME280;62638;51.362;12.472;2022-11-02T13:44:16;100788.25;;;15.53;51.02
74268;BME280;62638;51.362;12.472;2022-11-02T13:49:25;100787.00;;;15.47;51.10
74268;BME280;62638;51.362;12.472;2022-11-02T13:52:02;100786.09;;;15.30;51.00
74268;BME280;62638;51.362;12.472;2022-11-02T13:54:55;100781.75;;;15.37;50.94
74268;BME280;62638;51.362;12.472;2022-11-02T13:57:33;100794.38;;;15.37;51.39
74268;BME280;62638;51.362;12.472;2022-11-02T14:00:03;100779.13;;;15.54;51.50
74268;BME280;62638;51.362;12.472;2022-11-02T14:02:33;100784.91;;;15.33;51.16
74268;BME280;62638;51.362;12.472;2022-11-02T14:05:00;100770.81;;;15.47;50.77
74268;BME280;62638;51.362;12.472;2022-11-02T14:07:34;100788.00;;;15.46;51.13